createdAt,value
2023-05-20T00:01:44.713Z,12.90
2023-05-20T00:04:11.689Z,12.90
2023-05-20T00:06:38.593Z,12.90
2023-05-20T00:09:05.490Z,12.90
2023-05-20T00:11:32.286Z,12.90
2023-05-20T00:13:58.963Z,12.90
2023-05-20T00:16:25.692Z,12.80
2023-05-20T00:18:52.453Z,12.70
2023-05-20T00:21:19.229Z,12.70
2023-05-20T00:23:46.531Z,12.70
2023-05-20T00:26:13.441Z,12.70
2023-05-20T00:28:40.189Z,12.60
2023-05-20T00:31:07.228Z,12.60
2023-05-20T00:33:35.098Z,12.60
2023-05-20T00:36:02.018Z,12.50
2023-05-20T00:38:28.674Z,12.60
2023-05-20T00:40:55.428Z,12.50
2023-05-20T00:43:25.567Z,12.60
2023-05-20T00:45:53.991Z,12.60
2023-05-20T00:48:21.641Z,12.50
2023-05-20T00:50:49.590Z,12.50
2023-05-20T00:53:20.039Z,12.50
2023-05-20T00:55:46.754Z,12.50
2023-05-20T00:58:13.479Z,12.50
2023-05-20T01:00:40.299Z,12.50
2023-05-20T01:03:07.583Z,12.50
2023-05-20T01:05:34.517Z,12.50
2023-05-20T01:08:01.416Z,12.50
2023-05-20T01:10:30.361Z,12.50
2023-05-20T01:13:01.684Z,12.50
2023-05-20T01:15:30.159Z,12.50
2023-05-20T01:18:01.473Z,12.50
2023-05-20T01:20:32.385Z,12.50
2023-05-20T01:22:59.643Z,12.40
2023-05-20T01:25:26.522Z,12.40
2023-05-20T01:27:55.758Z,12.40
2023-05-20T01:30:23.842Z,12.40
2023-05-20T01:33:01.814Z,12.30
2023-05-20T01:35:29.708Z,12.20
2023-05-20T01:37:58.821Z,12.20
2023-05-20T01:40:27.908Z,12.10
2023-05-20T01:42:56.133Z,12.10
2023-05-20T01:45:24.495Z,12.20
2023-05-20T01:47:51.372Z,12.20
2023-05-20T01:50:18.228Z,12.20
2023-05-20T01:52:44.967Z,12.10
2023-05-20T01:55:11.733Z,12.20
2023-05-20T01:57:38.669Z,12.10
2023-05-20T02:00:06.743Z,12.00
2023-05-20T02:02:33.944Z,12.10
2023-05-20T02:05:00.736Z,12.00
2023-05-20T02:07:27.466Z,12.00
2023-05-20T02:09:54.191Z,12.00
2023-05-20T02:12:20.922Z,12.00
2023-05-20T02:14:48.182Z,12.10
2023-05-20T02:17:16.556Z,12.00
2023-05-20T02:19:44.391Z,12.00
2023-05-20T02:22:11.116Z,11.90
2023-05-20T02:24:37.832Z,11.90
2023-05-20T02:27:06.332Z,11.90
2023-05-20T02:29:33.307Z,11.80
2023-05-20T02:32:00.120Z,11.70
2023-05-20T02:34:28.008Z,11.70
2023-05-20T02:36:54.732Z,11.70
2023-05-20T02:39:21.437Z,11.60
2023-05-20T02:41:48.624Z,11.60
2023-05-20T02:44:15.532Z,11.60
2023-05-20T02:46:42.404Z,11.50
2023-05-20T02:49:09.714Z,11.50
2023-05-20T02:51:36.953Z,11.50
2023-05-20T02:54:03.801Z,11.50
2023-05-20T02:56:30.480Z,11.50
2023-05-20T02:58:57.316Z,11.50
2023-05-20T03:01:24.354Z,11.50
2023-05-20T03:03:51.331Z,11.50
2023-05-20T03:06:18.144Z,11.50
2023-05-20T03:08:44.890Z,11.40
2023-05-20T03:11:11.865Z,11.40
2023-05-20T03:13:38.631Z,11.40
2023-05-20T03:16:05.638Z,11.40
2023-05-20T03:18:33.355Z,11.40
2023-05-20T03:21:00.139Z,11.50
2023-05-20T03:23:27.210Z,11.50
2023-05-20T03:25:54.109Z,11.40
2023-05-20T03:28:20.941Z,11.40
2023-05-20T03:30:47.630Z,11.30
2023-05-20T03:33:15.083Z,11.30
2023-05-20T03:35:41.897Z,11.30
2023-05-20T03:38:08.596Z,11.30
2023-05-20T03:40:35.601Z,11.30
2023-05-20T03:43:02.328Z,11.30
2023-05-20T03:45:29.075Z,11.40
2023-05-20T03:47:56.363Z,11.30
2023-05-20T03:50:23.136Z,11.30
2023-05-20T03:52:49.803Z,11.30
2023-05-20T03:55:17.073Z,11.30
2023-05-20T03:57:43.839Z,11.30
2023-05-20T04:00:12.280Z,11.30
2023-05-20T04:02:39.332Z,11.40
2023-05-20T04:05:08.737Z,11.40
2023-05-20T04:07:36.769Z,11.40
2023-05-20T04:10:04.563Z,11.40
2023-05-20T04:12:32.347Z,11.50
2023-05-20T04:15:01.187Z,11.50
2023-05-20T04:17:30.098Z,11.60
2023-05-20T04:19:58.209Z,11.50
2023-05-20T04:22:25.192Z,11.60
2023-05-20T04:24:52.091Z,11.60
2023-05-20T04:27:20.373Z,11.60
2023-05-20T04:29:47.350Z,11.70
2023-05-20T04:32:15.766Z,11.70
2023-05-20T04:34:42.533Z,11.80
2023-05-20T04:37:10.028Z,11.90
2023-05-20T04:39:36.794Z,11.90
2023-05-20T04:42:04.767Z,12.00
2023-05-20T04:44:31.744Z,12.00
2023-05-20T04:46:59.533Z,12.10
2023-05-20T04:49:27.017Z,12.10
2023-05-20T04:51:55.471Z,12.20
2023-05-20T04:54:22.557Z,12.30
2023-05-20T04:56:49.325Z,12.30
2023-05-20T04:59:16.376Z,12.30
2023-05-20T05:01:43.186Z,12.40
2023-05-20T05:04:09.994Z,12.40
2023-05-20T05:06:36.762Z,12.40
2023-05-20T05:09:03.504Z,12.40
2023-05-20T05:11:30.444Z,12.40
2023-05-20T05:13:57.239Z,12.50
2023-05-20T05:16:23.939Z,12.50
2023-05-20T05:18:50.640Z,12.60
2023-05-20T05:21:17.652Z,12.60
2023-05-20T05:23:44.358Z,12.60
2023-05-20T05:26:11.153Z,12.60
2023-05-20T05:28:38.181Z,12.60
2023-05-20T05:31:06.579Z,12.70
2023-05-20T05:33:33.290Z,12.70
2023-05-20T05:36:01.718Z,12.80
2023-05-20T05:38:28.448Z,12.80
2023-05-20T05:40:58.111Z,12.80
2023-05-20T05:43:24.858Z,13.00
2023-05-20T05:45:51.607Z,12.90
2023-05-20T05:48:18.357Z,13.00
2023-05-20T05:50:46.368Z,13.00
2023-05-20T05:53:13.243Z,13.00
2023-05-20T05:55:40.098Z,13.10
2023-05-20T05:58:06.817Z,13.10
2023-05-20T06:00:33.654Z,13.20
2023-05-20T06:03:00.732Z,13.30
2023-05-20T06:05:29.257Z,13.30
2023-05-20T06:07:56.586Z,13.40
2023-05-20T06:10:23.808Z,13.50
2023-05-20T06:12:50.494Z,13.50
2023-05-20T06:15:17.377Z,13.60
2023-05-20T06:17:44.368Z,13.70
2023-05-20T06:20:11.711Z,13.90
2023-05-20T06:22:38.486Z,14.10
2023-05-20T06:25:06.272Z,14.50
2023-05-20T06:27:33.288Z,14.60
2023-05-20T06:30:00.187Z,14.70
2023-05-20T06:32:27.485Z,14.70
2023-05-20T06:34:54.457Z,15.00
2023-05-20T06:37:24.263Z,15.40
2023-05-20T06:39:53.755Z,15.60
2023-05-20T06:42:21.322Z,16.00
2023-05-20T06:44:48.157Z,17.20
2023-05-20T06:47:16.526Z,18.60
2023-05-20T06:49:46.492Z,20.20
2023-05-20T06:52:14.312Z,20.90
2023-05-20T06:54:41.534Z,20.70
2023-05-20T06:57:09.089Z,19.90
2023-05-20T06:59:36.893Z,19.70
2023-05-20T07:02:04.432Z,19.30
2023-05-20T07:04:31.286Z,19.20
2023-05-20T07:06:58.000Z,18.80
2023-05-20T07:09:24.818Z,18.40
2023-05-20T07:11:51.688Z,17.90
2023-05-20T07:14:18.570Z,17.30
2023-05-20T07:16:45.360Z,16.90
2023-05-20T07:19:12.140Z,16.60
2023-05-20T07:21:38.985Z,16.50
2023-05-20T07:24:05.873Z,16.50
2023-05-20T07:26:36.272Z,16.50
2023-05-20T07:29:04.128Z,16.50
2023-05-20T07:31:31.423Z,16.50
2023-05-20T07:33:58.477Z,16.60
2023-05-20T07:36:27.258Z,16.40
2023-05-20T07:39:02.479Z,16.40
2023-05-20T07:41:31.154Z,16.30
2023-05-20T07:43:57.916Z,16.30
2023-05-20T07:46:24.813Z,16.30
2023-05-20T07:48:51.609Z,16.20
2023-05-20T07:51:19.017Z,16.20
2023-05-20T07:53:45.802Z,16.20
2023-05-20T07:56:12.694Z,16.20
2023-05-20T07:58:42.626Z,16.10
2023-05-20T08:01:09.934Z,16.00
2023-05-20T08:03:36.984Z,16.10
2023-05-20T08:06:04.306Z,16.00
2023-05-20T08:08:31.132Z,16.00
2023-05-20T08:10:57.859Z,15.90
2023-05-20T08:13:26.148Z,15.90
2023-05-20T08:15:54.633Z,15.90
2023-05-20T08:18:21.744Z,15.90
2023-05-20T08:20:48.585Z,15.90
2023-05-20T08:23:15.679Z,15.90
2023-05-20T08:25:48.697Z,16.00
2023-05-20T08:28:15.528Z,16.10
2023-05-20T08:30:42.383Z,16.20
2023-05-20T08:33:09.325Z,16.20
2023-05-20T08:35:39.350Z,16.40
2023-05-20T08:38:07.026Z,16.50
2023-05-20T08:40:36.784Z,16.60
2023-05-20T08:43:04.258Z,16.80
2023-05-20T08:45:33.101Z,17.00
2023-05-20T08:48:01.246Z,17.20
2023-05-20T08:50:28.036Z,17.50
2023-05-20T08:52:54.818Z,17.80
2023-05-20T08:55:43.567Z,18.20
2023-05-20T08:58:10.715Z,18.50
2023-05-20T09:00:38.345Z,18.70
2023-05-20T09:03:05.439Z,18.80
2023-05-20T09:05:32.926Z,18.80
2023-05-20T09:08:12.926Z,18.60
2023-05-20T09:10:41.213Z,18.50
2023-05-20T09:13:09.398Z,18.60
2023-05-20T09:15:37.076Z,18.50
2023-05-20T09:18:05.784Z,18.60
2023-05-20T09:20:37.774Z,18.50
2023-05-20T09:23:10.174Z,18.60
2023-05-20T09:25:37.803Z,18.80
2023-05-20T09:28:08.801Z,19.00
2023-05-20T09:30:35.671Z,19.10
2023-05-20T09:33:05.237Z,19.10
2023-05-20T09:35:37.508Z,19.10
2023-05-20T09:38:07.946Z,19.10
2023-05-20T09:40:37.659Z,19.30
2023-05-20T09:43:08.167Z,19.40
2023-05-20T09:45:35.845Z,19.40
2023-05-20T09:48:03.916Z,19.30
2023-05-20T09:50:31.605Z,19.20
2023-05-20T09:53:03.547Z,19.40
2023-05-20T09:55:30.974Z,19.50
2023-05-20T09:58:01.849Z,19.60
2023-05-20T10:00:28.783Z,19.70
2023-05-20T10:02:55.608Z,19.80
2023-05-20T10:05:29.627Z,19.90
2023-05-20T10:08:07.405Z,19.90
2023-05-20T10:10:49.126Z,19.90
2023-05-20T10:13:24.668Z,19.80
2023-05-20T10:16:01.869Z,19.70
2023-05-20T10:19:16.921Z,20.00
2023-05-20T10:21:43.745Z,20.00
2023-05-20T10:24:11.204Z,20.00
2023-05-20T10:26:39.367Z,19.80
2023-05-20T10:29:16.600Z,19.80
2023-05-20T10:31:50.001Z,19.70
2023-05-20T10:34:18.236Z,19.80
2023-05-20T10:36:54.190Z,19.80
2023-05-20T10:39:30.357Z,20.00
2023-05-20T10:42:10.568Z,20.20
2023-05-20T10:44:47.551Z,20.40
2023-05-20T10:49:47.563Z,20.20
2023-05-20T10:52:14.979Z,20.30
2023-05-20T10:54:55.787Z,20.40
2023-05-20T10:57:22.707Z,20.60
2023-05-20T10:59:51.314Z,20.60
2023-05-20T11:02:18.869Z,20.70
2023-05-20T11:04:47.100Z,20.80
2023-05-20T11:07:25.821Z,21.00
2023-05-20T11:09:53.913Z,21.20
2023-05-20T11:12:23.723Z,20.80
2023-05-20T11:14:51.509Z,20.40
2023-05-20T11:17:19.214Z,20.20
2023-05-20T11:19:47.799Z,20.10
2023-05-20T11:22:14.683Z,19.90
2023-05-20T11:24:41.625Z,19.80
2023-05-20T11:27:08.418Z,19.80
2023-05-20T11:29:35.316Z,19.90
2023-05-20T11:32:02.344Z,20.00
2023-05-20T11:34:39.232Z,20.20
2023-05-20T11:37:10.299Z,20.20
2023-05-20T11:39:38.045Z,20.20
2023-05-20T11:42:06.138Z,20.20
2023-05-20T11:44:33.222Z,19.90
2023-05-20T11:47:01.644Z,19.80
2023-05-20T11:49:28.898Z,19.90
2023-05-20T11:51:57.385Z,19.90
2023-05-20T11:54:25.057Z,20.10
2023-05-20T11:56:53.942Z,20.30
2023-05-20T11:59:23.750Z,20.50
2023-05-20T12:01:50.536Z,20.60
2023-05-20T12:04:18.508Z,20.50
2023-05-20T12:06:45.749Z,20.40
2023-05-20T12:09:14.461Z,20.40
2023-05-20T12:11:41.857Z,20.30
2023-05-20T12:14:09.438Z,20.10
2023-05-20T12:16:37.304Z,20.20
2023-05-20T12:19:04.805Z,20.30
2023-05-20T12:21:31.918Z,20.20
2023-05-20T12:24:01.734Z,20.20
2023-05-20T12:26:29.683Z,20.20
2023-05-20T12:28:56.758Z,20.20
2023-05-20T12:31:23.853Z,20.10
2023-05-20T12:33:50.721Z,20.10
2023-05-20T12:36:17.607Z,20.00
2023-05-20T12:38:44.452Z,20.10
2023-05-20T12:41:11.259Z,20.10
2023-05-20T12:43:38.243Z,20.00
2023-05-20T12:46:05.791Z,20.00
2023-05-20T12:48:32.727Z,19.80
2023-05-20T12:50:59.775Z,19.80
2023-05-20T12:53:26.493Z,19.80
2023-05-20T12:55:53.628Z,19.70
2023-05-20T12:58:20.661Z,19.60
2023-05-20T13:00:47.493Z,19.50
2023-05-20T13:03:14.612Z,19.50
2023-05-20T13:05:41.615Z,19.50
2023-05-20T13:08:10.100Z,19.60
2023-05-20T13:10:37.475Z,19.70
2023-05-20T13:13:04.738Z,19.60
2023-05-20T13:15:33.388Z,19.60
2023-05-20T13:18:01.459Z,19.60
2023-05-20T13:20:30.251Z,19.60
2023-05-20T13:22:57.121Z,19.40
2023-05-20T13:25:23.956Z,19.50
2023-05-20T13:27:50.921Z,19.50
2023-05-20T13:30:17.752Z,19.50
2023-05-20T13:32:44.623Z,19.40
2023-05-20T13:35:12.985Z,19.50
2023-05-20T13:37:39.805Z,19.40
2023-05-20T13:40:07.302Z,19.40
2023-05-20T13:42:34.024Z,19.30
2023-05-20T13:45:00.887Z,19.30
2023-05-20T13:47:27.913Z,19.20
2023-05-20T13:49:54.831Z,19.20
2023-05-20T13:52:21.573Z,19.40
2023-05-20T13:54:48.751Z,19.40
2023-05-20T13:57:16.092Z,19.30
2023-05-20T13:59:42.849Z,19.20
2023-05-20T14:02:09.856Z,19.10
2023-05-20T14:04:39.729Z,19.00
2023-05-20T14:07:09.330Z,19.00
2023-05-20T14:09:36.816Z,19.00
2023-05-20T14:12:04.292Z,19.20
2023-05-20T14:14:31.259Z,19.30
2023-05-20T14:16:58.175Z,19.30
2023-05-20T14:19:26.209Z,19.10
2023-05-20T14:21:53.140Z,19.10
2023-05-20T14:24:21.351Z,19.10
2023-05-20T14:26:49.806Z,19.20
2023-05-20T14:29:16.619Z,19.20
2023-05-20T14:31:43.588Z,19.30
2023-05-20T14:34:10.809Z,19.30
2023-05-20T14:36:37.972Z,19.30
2023-05-20T14:39:05.119Z,19.20
2023-05-20T14:41:32.221Z,19.00
2023-05-20T14:43:59.152Z,18.90
2023-05-20T14:46:26.503Z,18.90
2023-05-20T14:48:53.360Z,19.00
2023-05-20T14:51:20.121Z,19.10
2023-05-20T14:53:46.892Z,19.10
2023-05-20T14:56:13.726Z,19.00
2023-05-20T14:58:40.751Z,18.90
2023-05-20T15:01:07.529Z,18.80
2023-05-20T15:03:34.439Z,18.70
2023-05-20T15:06:01.452Z,18.90
2023-05-20T15:08:28.263Z,19.00
2023-05-20T15:10:55.129Z,19.10
2023-05-20T15:13:21.945Z,19.20
2023-05-20T15:15:48.771Z,19.00
2023-05-20T15:18:15.595Z,19.00
2023-05-20T15:20:42.729Z,19.10
2023-05-20T15:23:09.670Z,19.20
2023-05-20T15:25:36.664Z,19.20
2023-05-20T15:28:03.717Z,19.30
2023-05-20T15:30:30.479Z,19.20
2023-05-20T15:32:58.488Z,19.10
2023-05-20T15:35:25.397Z,19.10
2023-05-20T15:37:52.210Z,19.00
2023-05-20T15:40:19.059Z,18.90
2023-05-20T15:42:45.802Z,19.00
2023-05-20T15:45:12.729Z,19.10
2023-05-20T15:47:40.872Z,19.10
2023-05-20T15:50:08.646Z,19.10
2023-05-20T15:52:35.650Z,19.10
2023-05-20T15:55:02.804Z,19.00
2023-05-20T15:57:30.591Z,18.90
2023-05-20T15:59:57.702Z,18.80
2023-05-20T16:02:25.096Z,18.80
2023-05-20T16:04:52.500Z,18.70
2023-05-20T16:07:19.358Z,18.50
2023-05-20T16:09:46.200Z,18.40
2023-05-20T16:12:13.156Z,18.30
2023-05-20T16:14:40.011Z,18.30
2023-05-20T16:17:06.821Z,18.30
2023-05-20T16:19:33.753Z,18.30
2023-05-20T16:22:00.723Z,18.20
2023-05-20T16:24:27.500Z,18.20
2023-05-20T16:26:54.493Z,18.20
2023-05-20T16:29:21.298Z,18.20
2023-05-20T16:31:48.112Z,18.10
2023-05-20T16:34:16.358Z,18.00
2023-05-20T16:36:45.175Z,18.00
2023-05-20T16:39:12.812Z,17.90
2023-05-20T16:41:39.551Z,17.90
2023-05-20T16:44:06.600Z,17.90
2023-05-20T16:46:33.463Z,17.90
2023-05-20T16:49:00.192Z,17.80
2023-05-20T16:51:27.166Z,17.70
2023-05-20T16:53:54.135Z,17.70
2023-05-20T16:56:21.860Z,17.70
2023-05-20T16:58:50.585Z,17.60
2023-05-20T17:01:18.995Z,17.60
2023-05-20T17:03:45.836Z,17.50
2023-05-20T17:06:12.649Z,17.50
2023-05-20T17:08:39.406Z,17.40
2023-05-20T17:11:06.310Z,17.40
2023-05-20T17:13:33.092Z,17.30
2023-05-20T17:15:59.890Z,17.30
2023-05-20T17:18:26.582Z,17.30
2023-05-20T17:20:53.374Z,17.20
2023-05-20T17:23:20.086Z,17.20
2023-05-20T17:25:46.803Z,17.20
2023-05-20T17:28:13.567Z,17.10
2023-05-20T17:30:40.506Z,17.20
2023-05-20T17:33:07.379Z,17.10
2023-05-20T17:35:34.220Z,17.00
2023-05-20T17:38:01.143Z,17.00
2023-05-20T17:40:27.907Z,17.00
2023-05-20T17:42:54.752Z,17.00
2023-05-20T17:45:21.610Z,17.10
2023-05-20T17:47:48.972Z,16.90
2023-05-20T17:50:16.622Z,16.90
2023-05-20T17:52:43.528Z,16.90
2023-05-20T17:55:10.354Z,16.90
2023-05-20T17:57:37.216Z,16.80
2023-05-20T18:00:05.545Z,16.90
2023-05-20T18:02:32.587Z,16.80
2023-05-20T18:04:59.394Z,16.80
2023-05-20T18:07:26.983Z,16.80
2023-05-20T18:09:55.233Z,16.80
2023-05-20T18:12:22.069Z,16.80
2023-05-20T18:14:48.944Z,16.80
2023-05-20T18:17:15.880Z,16.70
2023-05-20T18:19:42.747Z,16.70
2023-05-20T18:22:09.600Z,16.70
2023-05-20T18:24:36.592Z,16.70
2023-05-20T18:27:03.381Z,16.60
2023-05-20T18:29:30.933Z,16.60
2023-05-20T18:31:57.778Z,16.60
2023-05-20T18:34:24.622Z,16.60
2023-05-20T18:36:51.480Z,16.60
2023-05-20T18:39:20.815Z,16.50
2023-05-20T18:41:48.209Z,16.50
2023-05-20T18:44:16.234Z,16.40
2023-05-20T18:46:43.588Z,16.40
2023-05-20T18:49:10.772Z,16.40
2023-05-20T18:51:40.813Z,16.40
2023-05-20T18:54:07.889Z,16.30
2023-05-20T18:56:34.942Z,16.30
2023-05-20T18:59:01.749Z,16.30
2023-05-20T19:01:28.558Z,16.30
2023-05-20T19:03:55.505Z,16.20
2023-05-20T19:06:22.462Z,16.30
2023-05-20T19:08:49.533Z,16.20
2023-05-20T19:11:16.750Z,16.20
2023-05-20T19:13:43.580Z,16.10
2023-05-20T19:16:10.590Z,16.10
2023-05-20T19:18:37.579Z,16.20
2023-05-20T19:21:04.551Z,16.10
2023-05-20T19:23:32.442Z,16.10
2023-05-20T19:25:59.244Z,16.10
2023-05-20T19:28:26.105Z,16.00
2023-05-20T19:30:53.179Z,16.00
2023-05-20T19:33:20.884Z,16.00
2023-05-20T19:35:47.672Z,16.00
2023-05-20T19:38:14.690Z,15.90
2023-05-20T19:40:41.446Z,15.90
2023-05-20T19:43:08.174Z,15.90
2023-05-20T19:45:36.554Z,15.90
2023-05-20T19:48:04.392Z,15.90
2023-05-20T19:50:31.669Z,15.90
2023-05-20T19:52:58.829Z,15.90
2023-05-20T19:55:25.867Z,15.80
2023-05-20T19:57:53.721Z,15.90
2023-05-20T20:00:21.639Z,15.80
2023-05-20T20:02:49.719Z,15.90
2023-05-20T20:05:16.745Z,15.80
2023-05-20T20:07:43.673Z,15.80
2023-05-20T20:10:11.046Z,15.80
2023-05-20T20:12:37.866Z,15.80
2023-05-20T20:15:05.009Z,15.80
2023-05-20T20:17:33.589Z,15.70
2023-05-20T20:20:00.915Z,15.80
2023-05-20T20:22:27.821Z,15.70
2023-05-20T20:24:54.954Z,15.70
2023-05-20T20:27:23.747Z,15.70
2023-05-20T20:29:51.392Z,15.70
2023-05-20T20:32:18.565Z,15.70
2023-05-20T20:34:45.908Z,15.70
2023-05-20T20:37:15.464Z,15.70
2023-05-20T20:39:42.877Z,15.60
2023-05-20T20:42:09.704Z,15.60
2023-05-20T20:44:36.478Z,15.70
2023-05-20T20:47:04.666Z,15.60
2023-05-20T20:49:32.211Z,15.70
2023-05-20T20:51:59.255Z,15.60
2023-05-20T20:54:26.427Z,15.60
2023-05-20T20:56:56.608Z,15.60
2023-05-20T20:59:26.248Z,15.60
2023-05-20T21:01:53.791Z,15.60
2023-05-20T21:04:21.399Z,15.60
2023-05-20T21:06:48.276Z,15.60
2023-05-20T21:09:15.221Z,15.50
2023-05-20T21:11:42.588Z,15.60
2023-05-20T21:14:10.355Z,15.60
2023-05-20T21:16:37.461Z,15.60
2023-05-20T21:19:04.603Z,15.60
2023-05-20T21:21:31.641Z,15.50
2023-05-20T21:23:58.558Z,15.50
2023-05-20T21:26:25.732Z,15.50
2023-05-20T21:28:52.687Z,15.50
2023-05-20T21:31:19.775Z,15.50
2023-05-20T21:33:46.756Z,15.50
2023-05-20T21:36:13.621Z,15.50
2023-05-20T21:38:40.415Z,15.50
2023-05-20T21:41:07.578Z,15.50
2023-05-20T21:43:35.878Z,15.50
2023-05-20T21:46:02.822Z,15.50
2023-05-20T21:48:29.572Z,15.50
2023-05-20T21:50:56.282Z,15.50
2023-05-20T21:53:23.085Z,15.50
2023-05-20T21:55:50.012Z,15.50
2023-05-20T21:58:16.807Z,15.50
2023-05-20T22:00:43.739Z,15.50
2023-05-20T22:03:12.052Z,15.50
2023-05-20T22:05:38.962Z,15.50
2023-05-20T22:08:05.920Z,15.50
2023-05-20T22:10:36.475Z,15.40
2023-05-20T22:13:03.533Z,15.50
2023-05-20T22:15:31.255Z,15.40
2023-05-20T22:17:58.587Z,15.50
2023-05-20T22:20:25.653Z,15.40
2023-05-20T22:22:52.370Z,15.40
2023-05-20T22:25:19.065Z,15.40
2023-05-20T22:27:45.879Z,15.30
2023-05-20T22:30:13.132Z,15.40
2023-05-20T22:32:40.780Z,15.30
2023-05-20T22:35:08.281Z,15.30
2023-05-20T22:37:35.469Z,15.40
2023-05-20T22:40:02.255Z,15.30
2023-05-20T22:42:29.025Z,15.30
2023-05-20T22:44:55.954Z,15.20
2023-05-20T22:47:22.763Z,15.20
2023-05-20T22:49:49.616Z,15.20
2023-05-20T22:52:16.461Z,15.20
2023-05-20T22:54:43.214Z,15.20
2023-05-20T22:57:09.910Z,15.20
2023-05-20T22:59:36.767Z,15.10
2023-05-20T23:02:04.419Z,15.10
2023-05-20T23:04:31.198Z,15.10
2023-05-20T23:06:59.442Z,15.00
2023-05-20T23:09:27.898Z,14.90
2023-05-20T23:11:54.767Z,14.90
2023-05-20T23:14:21.717Z,14.90
2023-05-20T23:16:48.634Z,14.80
2023-05-20T23:19:15.746Z,14.80
2023-05-20T23:21:42.803Z,14.70
2023-05-20T23:24:09.768Z,14.70
2023-05-20T23:26:37.656Z,14.70
2023-05-20T23:29:05.285Z,14.70
2023-05-20T23:31:32.944Z,14.60
2023-05-20T23:34:00.927Z,14.60
2023-05-20T23:36:34.568Z,14.60
2023-05-20T23:39:04.629Z,14.60
2023-05-20T23:41:31.455Z,14.60
2023-05-20T23:43:58.206Z,14.50
2023-05-20T23:46:25.681Z,14.40
2023-05-20T23:48:53.739Z,14.40
2023-05-20T23:51:20.734Z,14.40
2023-05-20T23:53:47.556Z,14.30
2023-05-20T23:56:14.394Z,14.30
2023-05-20T23:58:41.239Z,14.30
